Time;durP1;ratioP1;P1;durP2;ratioP2;P2;SDS_P1;SDS_P2;PMS_P1;PMS_P2;Temp;Humidity;BMP_temperature;BMP_pressure;BME280_temperature;BME280_humidity;BME280_pressure;Samples;Min_cycle;Max_cycle;Signal;HPM_P1;HPM_P2
2021/12/09 00:01:41;;;;;;;3.53;1.67;;;3.60;99.90;;;;;;5101002;27;20430;-69
2021/12/09 00:04:11;;;;;;;4.30;3.10;;;3.50;99.90;;;;;;5079086;27;20489;-69
2021/12/09 00:06:39;;;;;;;1.57;1.43;;;3.40;99.90;;;;;;5088888;27;20489;-69
2021/12/09 00:09:10;;;;;;;26.17;3.03;;;3.50;99.90;;;;;;5100785;28;20464;-69
2021/12/09 00:11:43;;;;;;;2.40;2.23;;;3.50;99.90;;;;;;5095412;27;20441;-70
2021/12/09 00:14:13;;;;;;;8.20;7.50;;;3.50;99.90;;;;;;5071102;27;20440;-69
2021/12/09 00:16:40;;;;;;;3.90;2.90;;;3.40;99.90;;;;;;5071910;27;20959;-70
2021/12/09 00:19:07;;;;;;;4.93;1.83;;;3.30;99.90;;;;;;5097792;28;20816;-69
2021/12/09 00:21:34;;;;;;;6.97;2.23;;;3.30;99.90;;;;;;5094118;28;20464;-70
2021/12/09 00:24:01;;;;;;;2.50;1.30;;;3.30;99.90;;;;;;5095328;27;20427;-69
2021/12/09 00:26:30;;;;;;;3.87;2.13;;;3.30;99.90;;;;;;5093800;28;20483;-68
2021/12/09 00:28:57;;;;;;;4.70;1.90;;;3.30;99.90;;;;;;5099593;27;21007;-70
2021/12/09 00:31:24;;;;;;;3.87;2.40;;;3.10;99.90;;;;;;5094064;28;20506;-69
2021/12/09 00:33:52;;;;;;;2.20;2.00;;;3.10;99.90;;;;;;5089708;28;20481;-70
2021/12/09 00:36:27;;;;;;;8.30;3.37;;;3.10;99.90;;;;;;5083244;27;20464;-69
2021/12/09 00:38:55;;;;;;;5.73;4.20;;;3.20;99.90;;;;;;5087364;28;26533;-70
2021/12/09 00:41:22;;;;;;;4.00;3.70;;;3.10;99.90;;;;;;5102074;28;20795;-69
2021/12/09 00:43:51;;;;;;;2.43;2.23;;;3.20;99.90;;;;;;5098269;28;20948;-70
2021/12/09 00:46:18;;;;;;;6.13;5.67;;;3.20;99.90;;;;;;5084839;27;20431;-67
2021/12/09 00:48:45;;;;;;;4.10;3.60;;;3.20;99.90;;;;;;5092324;28;20931;-70
2021/12/09 00:51:12;;;;;;;3.07;2.87;;;3.20;99.90;;;;;;5094770;28;20487;-69
2021/12/09 00:53:40;;;;;;;5.30;4.90;;;3.10;99.90;;;;;;5089964;28;20422;-67
2021/12/09 00:56:08;;;;;;;7.70;7.10;;;3.00;99.90;;;;;;5090157;28;20463;-70
2021/12/09 00:58:36;;;;;;;5.10;4.57;;;2.90;99.90;;;;;;5093122;28;20536;-70
2021/12/09 01:01:04;;;;;;;9.00;7.87;;;2.80;99.90;;;;;;5098315;28;20455;-69
2021/12/09 01:03:32;;;;;;;6.33;5.73;;;2.80;99.90;;;;;;5092462;27;20463;-70
2021/12/09 01:05:59;;;;;;;3.77;3.57;;;2.80;99.90;;;;;;5087479;27;20440;-69
2021/12/09 01:08:26;;;;;;;2.07;1.97;;;2.80;99.90;;;;;;5103899;28;20452;-69
2021/12/09 01:10:53;;;;;;;6.03;2.50;;;2.80;99.90;;;;;;5105174;28;20518;-69
2021/12/09 01:13:20;;;;;;;2.07;1.87;;;2.80;99.90;;;;;;5092948;28;20518;-67
2021/12/09 01:15:48;;;;;;;6.60;3.00;;;2.80;99.90;;;;;;5078737;28;21517;-70
2021/12/09 01:20:49;;;;;;;3.50;3.30;;;2.90;99.90;;;;;;5057082;28;20452;-68
2021/12/09 01:23:16;;;;;;;4.60;4.20;;;2.70;99.90;;;;;;5059802;28;20459;-68
2021/12/09 01:25:43;;;;;;;4.97;4.30;;;2.60;99.90;;;;;;5067722;28;21016;-69
2021/12/09 01:28:20;;;;;;;4.40;2.90;;;2.70;99.90;;;;;;5070285;28;20423;-70
2021/12/09 01:30:49;;;;;;;2.63;2.43;;;2.60;99.90;;;;;;5039807;28;20515;-69
2021/12/09 01:33:16;;;;;;;1.67;1.57;;;2.60;99.90;;;;;;5045494;28;20554;-69
2021/12/09 01:35:47;;;;;;;5.73;3.30;;;2.60;99.90;;;;;;5046633;28;20460;-69
2021/12/09 01:38:17;;;;;;;3.73;2.30;;;2.50;99.90;;;;;;5056091;28;20452;-69
2021/12/09 01:40:45;;;;;;;5.90;5.40;;;2.50;99.90;;;;;;5053562;28;20461;-68
2021/12/09 01:43:14;;;;;;;4.80;3.93;;;2.60;99.90;;;;;;5040335;28;20448;-68
2021/12/09 01:45:41;;;;;;;3.63;2.43;;;2.50;99.90;;;;;;5044787;28;20525;-68
2021/12/09 01:48:09;;;;;;;3.60;1.90;;;2.50;99.90;;;;;;5047458;28;20502;-67
2021/12/09 01:50:36;;;;;;;1.97;1.83;;;2.40;99.90;;;;;;5037539;28;20467;-68
2021/12/09 01:53:04;;;;;;;3.97;2.03;;;2.50;99.90;;;;;;5050168;28;20438;-68
2021/12/09 01:55:33;;;;;;;4.97;4.57;;;2.60;99.90;;;;;;5052611;28;20519;-67
2021/12/09 01:58:01;;;;;;;4.97;4.57;;;2.50;99.90;;;;;;5053770;28;20463;-67
2021/12/09 02:00:37;;;;;;;8.43;3.53;;;2.50;99.90;;;;;;5052450;28;20883;-67
2021/12/09 02:03:04;;;;;;;12.47;2.97;;;2.50;99.90;;;;;;5050529;28;20425;-68
2021/12/09 02:05:34;;;;;;;5.03;4.63;;;2.60;99.90;;;;;;5053068;28;20473;-68
2021/12/09 02:08:02;;;;;;;3.77;3.47;;;2.50;99.90;;;;;;5042151;28;20442;-68
2021/12/09 02:10:29;;;;;;;4.30;3.70;;;2.50;99.90;;;;;;5054831;28;20539;-68
2021/12/09 02:12:57;;;;;;;3.50;3.20;;;2.50;99.90;;;;;;5055156;28;20825;-68
2021/12/09 02:15:25;;;;;;;4.53;3.20;;;2.50;99.90;;;;;;5062522;28;20441;-68
2021/12/09 02:17:53;;;;;;;4.50;4.07;;;2.50;99.90;;;;;;5055322;28;20838;-69
2021/12/09 02:20:21;;;;;;;9.60;5.87;;;2.50;99.90;;;;;;5056113;28;20480;-69
2021/12/09 02:22:51;;;;;;;4.30;3.90;;;2.50;99.90;;;;;;5055692;28;20533;-68
2021/12/09 02:25:19;;;;;;;4.43;4.00;;;2.50;99.90;;;;;;5033989;28;21072;-68
2021/12/09 02:27:46;;;;;;;6.83;4.83;;;2.40;99.90;;;;;;5052730;28;20585;-69
2021/12/09 02:30:14;;;;;;;8.60;3.20;;;2.30;99.90;;;;;;5047031;28;20580;-68
2021/12/09 02:32:42;;;;;;;2.97;2.67;;;2.30;99.90;;;;;;5049053;28;20861;-67
2021/12/09 02:35:09;;;;;;;8.67;3.70;;;2.30;99.90;;;;;;5055032;28;20516;-68
2021/12/09 02:37:37;;;;;;;3.90;3.60;;;2.30;99.90;;;;;;5051240;28;20473;-67
2021/12/09 02:40:07;;;;;;;4.97;4.67;;;2.30;99.90;;;;;;5052308;28;20465;-68
2021/12/09 02:42:35;;;;;;;3.53;3.00;;;2.30;99.90;;;;;;5049899;28;20458;-68
2021/12/09 02:45:03;;;;;;;4.83;3.60;;;2.30;99.90;;;;;;5061979;28;20522;-69
2021/12/09 02:47:30;;;;;;;4.07;3.67;;;2.20;99.90;;;;;;5053699;28;20984;-68
2021/12/09 02:49:57;;;;;;;4.67;4.27;;;2.20;99.90;;;;;;5054249;28;20510;-67
2021/12/09 02:52:24;;;;;;;4.53;3.60;;;2.10;99.90;;;;;;5057046;28;20417;-68
2021/12/09 02:54:51;;;;;;;2.80;2.07;;;2.20;99.90;;;;;;5059089;28;20723;-68
2021/12/09 02:57:20;;;;;;;5.17;4.63;;;2.10;99.90;;;;;;5063868;28;20442;-69
2021/12/09 02:59:47;;;;;;;14.50;8.70;;;2.10;99.90;;;;;;5054536;28;20469;-68
2021/12/09 03:02:14;;;;;;;7.83;7.07;;;2.20;99.90;;;;;;5058720;28;21610;-68
2021/12/09 03:04:46;;;;;;;4.17;3.87;;;2.20;99.90;;;;;;5045144;28;20444;-67
2021/12/09 03:07:18;;;;;;;8.57;3.40;;;2.20;99.90;;;;;;5054349;28;20441;-68
2021/12/09 03:09:51;;;;;;;9.37;8.40;;;2.00;99.90;;;;;;5046975;28;20464;-69
2021/12/09 03:12:23;;;;;;;5.27;3.53;;;2.00;99.90;;;;;;5052242;28;20547;-69
2021/12/09 03:14:50;;;;;;;2.97;2.67;;;1.90;99.90;;;;;;5055433;28;20435;-68
2021/12/09 03:17:18;;;;;;;4.40;3.90;;;1.90;99.90;;;;;;5048002;28;20531;-68
2021/12/09 03:19:45;;;;;;;3.03;2.83;;;1.90;99.90;;;;;;5054067;28;20537;-69
2021/12/09 03:22:13;;;;;;;5.27;4.10;;;1.90;99.90;;;;;;5057240;28;20493;-68
2021/12/09 03:24:40;;;;;;;3.63;2.77;;;1.90;99.90;;;;;;5047135;28;20515;-68
2021/12/09 03:27:08;;;;;;;3.83;2.63;;;1.90;99.90;;;;;;5047640;28;21013;-68
2021/12/09 03:29:38;;;;;;;4.80;3.20;;;1.90;99.90;;;;;;5048904;28;21080;-68
2021/12/09 03:32:08;;;;;;;5.13;3.47;;;1.90;99.90;;;;;;5054564;28;20954;-68
2021/12/09 03:34:37;;;;;;;3.10;2.57;;;2.00;99.90;;;;;;5050733;28;20502;-68
2021/12/09 03:37:07;;;;;;;3.20;2.60;;;2.00;99.90;;;;;;5064682;28;20444;-68
2021/12/09 03:39:38;;;;;;;4.07;3.67;;;1.90;99.90;;;;;;5056068;28;20525;-68
2021/12/09 03:42:12;;;;;;;3.13;1.93;;;1.80;99.90;;;;;;5051283;28;20460;-67
2021/12/09 03:44:41;;;;;;;3.07;2.63;;;1.80;99.90;;;;;;5040504;28;20476;-68
2021/12/09 03:47:12;;;;;;;5.27;3.13;;;1.70;99.90;;;;;;5052036;28;20526;-69
2021/12/09 03:49:41;;;;;;;3.70;3.20;;;1.70;99.90;;;;;;5044441;28;20552;-68
2021/12/09 03:52:09;;;;;;;3.60;3.00;;;1.60;99.90;;;;;;5051071;28;20469;-68
2021/12/09 03:54:37;;;;;;;5.97;2.63;;;1.70;99.90;;;;;;5039759;28;20603;-68
2021/12/09 03:57:05;;;;;;;2.10;1.60;;;1.70;99.90;;;;;;5053143;28;20438;-69
2021/12/09 03:59:32;;;;;;;5.73;3.00;;;1.70;99.90;;;;;;5056475;28;20522;-68
2021/12/09 04:02:01;;;;;;;2.47;2.00;;;1.80;99.90;;;;;;5048498;28;20441;-69
2021/12/09 04:04:28;;;;;;;2.87;2.67;;;1.80;99.90;;;;;;5056964;28;20542;-68
2021/12/09 04:06:55;;;;;;;2.30;2.10;;;1.90;99.90;;;;;;5053931;28;20543;-68
2021/12/09 04:09:23;;;;;;;6.13;3.07;;;1.80;99.90;;;;;;5054482;28;20544;-68
2021/12/09 04:11:50;;;;;;;2.70;2.20;;;1.80;99.90;;;;;;5054738;28;20534;-68
2021/12/09 04:14:18;;;;;;;3.20;2.90;;;1.90;99.90;;;;;;5049378;28;20832;-68
2021/12/09 04:16:46;;;;;;;8.30;3.07;;;1.90;99.90;;;;;;5036372;28;20437;-68
2021/12/09 04:19:14;;;;;;;4.77;2.33;;;1.90;99.90;;;;;;5044896;28;20551;-68
2021/12/09 04:21:43;;;;;;;2.20;1.90;;;1.90;99.90;;;;;;5041571;28;20555;-68
2021/12/09 04:24:12;;;;;;;6.80;2.97;;;1.90;99.90;;;;;;5054886;28;20518;-68
2021/12/09 04:26:41;;;;;;;7.30;4.10;;;1.80;99.90;;;;;;5052428;28;20518;-68
2021/12/09 04:29:09;;;;;;;6.67;3.67;;;1.80;99.90;;;;;;5051904;28;20555;-68
2021/12/09 04:31:37;;;;;;;4.27;3.67;;;1.80;99.90;;;;;;5062658;28;20463;-67
2021/12/09 04:34:04;;;;;;;15.63;3.83;;;1.80;99.90;;;;;;5044107;28;20520;-70
2021/12/09 04:36:32;;;;;;;11.17;6.00;;;1.80;99.90;;;;;;5049207;28;20459;-68
2021/12/09 04:38:59;;;;;;;8.53;5.23;;;1.70;99.90;;;;;;5044175;28;20534;-66
2021/12/09 04:41:26;;;;;;;4.90;3.47;;;1.70;99.90;;;;;;5049516;28;20584;-67
2021/12/09 04:43:53;;;;;;;9.70;3.50;;;1.80;99.90;;;;;;5047984;28;20515;-67
2021/12/09 04:46:20;;;;;;;14.50;3.87;;;1.70;99.90;;;;;;5048538;28;20437;-67
2021/12/09 04:48:47;;;;;;;5.33;3.37;;;1.50;99.90;;;;;;5051493;28;20557;-67
2021/12/09 04:51:15;;;;;;;14.03;2.37;;;1.50;99.90;;;;;;5044015;28;20889;-67
2021/12/09 04:53:43;;;;;;;5.70;2.87;;;1.70;99.90;;;;;;5037572;28;20604;-66
2021/12/09 04:56:10;;;;;;;4.13;2.30;;;1.70;99.90;;;;;;5027107;28;20458;-67
2021/12/09 04:58:37;;;;;;;2.73;2.50;;;1.70;99.90;;;;;;5032621;28;20455;-67
2021/12/09 05:01:09;;;;;;;4.40;2.77;;;1.80;99.90;;;;;;5046434;28;20454;-68
2021/12/09 05:03:36;;;;;;;10.73;2.43;;;1.80;99.90;;;;;;5038536;28;20462;-68
2021/12/09 05:06:03;;;;;;;4.97;3.70;;;1.70;99.90;;;;;;5046797;28;20462;-67
2021/12/09 05:08:33;;;;;;;6.40;2.60;;;1.80;99.90;;;;;;5045407;28;20766;-66
2021/12/09 05:11:07;;;;;;;3.97;3.20;;;1.80;99.90;;;;;;5047461;28;20605;-68
2021/12/09 05:13:39;;;;;;;6.70;3.13;;;1.80;99.90;;;;;;5053980;28;20459;-68
2021/12/09 05:16:09;;;;;;;4.53;3.73;;;1.70;99.90;;;;;;5046085;28;20512;-67
2021/12/09 05:18:39;;;;;;;4.17;2.93;;;1.70;99.90;;;;;;5042217;28;20438;-66
2021/12/09 05:21:07;;;;;;;4.90;2.33;;;1.70;99.90;;;;;;5036953;28;20486;-68
2021/12/09 05:23:35;;;;;;;2.70;2.13;;;1.80;99.90;;;;;;5055606;28;20797;-67
2021/12/09 05:26:04;;;;;;;5.53;2.67;;;1.80;99.90;;;;;;5043377;28;20434;-68
2021/12/09 05:28:34;;;;;;;2.93;2.23;;;2.00;99.90;;;;;;5046369;28;20463;-68
2021/12/09 05:33:46;;;;;;;5.00;3.07;;;2.30;99.90;;;;;;5036242;28;21009;-68
2021/12/09 05:36:13;;;;;;;4.00;2.80;;;2.20;99.90;;;;;;5032663;28;20461;-67
2021/12/09 05:38:41;;;;;;;7.93;2.33;;;2.30;99.90;;;;;;5030716;28;20495;-68
2021/12/09 05:41:09;;;;;;;3.90;3.20;;;2.30;99.90;;;;;;5043596;28;20583;-68
2021/12/09 05:43:39;;;;;;;3.77;2.43;;;2.30;99.90;;;;;;5037916;28;20442;-67
2021/12/09 05:46:07;;;;;;;2.77;2.23;;;2.40;99.90;;;;;;5048137;28;20445;-68
2021/12/09 05:48:35;;;;;;;2.87;2.40;;;2.40;99.90;;;;;;5051387;28;21016;-67
2021/12/09 05:51:02;;;;;;;11.30;4.17;;;2.50;99.90;;;;;;5047027;28;20490;-67
2021/12/09 05:53:29;;;;;;;7.00;3.80;;;2.60;99.90;;;;;;5059060;28;20902;-68
2021/12/09 05:55:56;;;;;;;5.47;3.33;;;2.60;99.90;;;;;;5060540;28;20465;-68
2021/12/09 05:58:24;;;;;;;8.53;2.73;;;2.50;99.90;;;;;;5059832;28;20463;-67
2021/12/09 06:00:53;;;;;;;10.63;3.90;;;2.50;99.90;;;;;;5054073;28;20528;-68
2021/12/09 06:03:21;;;;;;;4.53;3.07;;;2.60;99.90;;;;;;5039017;28;20466;-67
2021/12/09 06:05:49;;;;;;;5.93;3.90;;;2.60;99.90;;;;;;5056078;28;20483;-67
2021/12/09 06:08:16;;;;;;;7.03;3.23;;;2.50;99.90;;;;;;5065707;28;20454;-66
2021/12/09 06:10:43;;;;;;;5.23;3.33;;;2.50;99.90;;;;;;5063428;28;21072;-68
2021/12/09 06:13:10;;;;;;;5.50;3.00;;;2.60;99.90;;;;;;5048353;28;20780;-68
2021/12/09 06:15:39;;;;;;;6.90;2.10;;;2.50;99.90;;;;;;5043305;28;20818;-68
2021/12/09 06:18:06;;;;;;;2.50;2.30;;;2.40;99.90;;;;;;5052104;28;20488;-68
2021/12/09 06:20:33;;;;;;;2.60;2.37;;;2.40;99.90;;;;;;5047397;28;21033;-68
2021/12/09 06:23:00;;;;;;;17.93;3.50;;;2.50;99.90;;;;;;5043331;28;20598;-67
2021/12/09 06:25:27;;;;;;;8.53;4.33;;;2.50;99.90;;;;;;5047864;28;20521;-68
2021/12/09 06:27:56;;;;;;;27.97;4.13;;;2.50;99.90;;;;;;5052744;28;20532;-69
2021/12/09 06:30:24;;;;;;;4.07;3.13;;;2.40;99.90;;;;;;5043178;28;20940;-68
2021/12/09 06:32:53;;;;;;;11.33;3.67;;;2.40;99.90;;;;;;5054390;28;20897;-69
2021/12/09 06:35:20;;;;;;;3.63;3.33;;;2.30;99.90;;;;;;5042105;28;20810;-67
2021/12/09 06:37:48;;;;;;;6.50;3.83;;;2.30;99.90;;;;;;5059607;28;20491;-68
2021/12/09 06:40:22;;;;;;;4.70;2.43;;;2.30;99.90;;;;;;5067804;28;20538;-68
2021/12/09 06:42:51;;;;;;;6.23;2.63;;;2.30;99.90;;;;;;5067487;28;20469;-68
2021/12/09 06:45:20;;;;;;;3.77;2.50;;;2.30;99.90;;;;;;5061252;28;20553;-68
2021/12/09 06:47:47;;;;;;;2.40;2.20;;;2.20;99.90;;;;;;5063648;28;20459;-68
2021/12/09 06:50:19;;;;;;;4.67;4.10;;;2.20;99.90;;;;;;5069908;28;20485;-68
2021/12/09 06:52:46;;;;;;;5.80;2.83;;;2.20;99.90;;;;;;5069413;28;20434;-68
2021/12/09 06:55:14;;;;;;;3.73;3.27;;;2.20;99.90;;;;;;5072087;28;20429;-68
2021/12/09 06:57:43;;;;;;;3.83;2.53;;;2.30;99.90;;;;;;5069009;28;20459;-68
2021/12/09 07:00:16;;;;;;;10.70;3.00;;;2.30;99.90;;;;;;5074395;28;20474;-68
2021/12/09 07:02:44;;;;;;;2.23;2.10;;;2.40;99.90;;;;;;5064752;28;20440;-69
2021/12/09 07:05:12;;;;;;;5.20;3.67;;;2.30;99.90;;;;;;5066930;28;20455;-69
2021/12/09 07:07:40;;;;;;;4.00;2.70;;;2.30;99.90;;;;;;5069118;28;20516;-68
2021/12/09 07:10:10;;;;;;;5.80;3.60;;;2.40;99.90;;;;;;5063247;28;20510;-69
2021/12/09 07:12:38;;;;;;;9.03;5.33;;;2.30;99.90;;;;;;5062971;28;20869;-68
2021/12/09 07:15:08;;;;;;;7.77;3.73;;;2.30;99.90;;;;;;5061151;28;20467;-68
2021/12/09 07:17:35;;;;;;;13.60;3.27;;;2.20;99.90;;;;;;5067595;28;20483;-68
2021/12/09 07:20:04;;;;;;;2.80;2.60;;;2.20;99.90;;;;;;5080069;22;20514;-66
2021/12/09 07:22:31;;;;;;;4.47;2.83;;;2.20;99.90;;;;;;5078866;28;21394;-70
2021/12/09 07:24:59;;;;;;;3.03;2.20;;;2.20;99.90;;;;;;5081603;28;20436;-69
2021/12/09 07:27:26;;;;;;;4.23;2.80;;;2.30;99.90;;;;;;5084384;28;20484;-70
2021/12/09 07:29:53;;;;;;;2.60;2.37;;;2.30;99.90;;;;;;5080904;28;20476;-71
2021/12/09 07:32:20;;;;;;;4.60;2.90;;;2.20;99.90;;;;;;5083852;28;20476;-70
2021/12/09 07:34:47;;;;;;;3.00;1.90;;;2.10;99.90;;;;;;5081677;28;20458;-69
2021/12/09 07:37:14;;;;;;;3.97;3.50;;;2.20;99.90;;;;;;5085049;28;20498;-70
2021/12/09 07:39:41;;;;;;;5.70;4.67;;;2.20;99.90;;;;;;5089135;28;20513;-70
2021/12/09 07:42:11;;;;;;;9.37;4.50;;;2.20;99.90;;;;;;5082271;28;20452;-70
2021/12/09 07:44:38;;;;;;;4.13;2.30;;;2.20;99.90;;;;;;5079670;28;20441;-71
2021/12/09 07:47:05;;;;;;;3.67;2.60;;;2.10;99.90;;;;;;5080301;28;20441;-71
2021/12/09 07:49:32;;;;;;;5.03;4.60;;;2.20;99.90;;;;;;5067062;28;20513;-72
2021/12/09 07:51:59;;;;;;;8.50;2.90;;;2.20;99.90;;;;;;5078089;28;20509;-71
2021/12/09 07:54:26;;;;;;;6.07;3.30;;;2.20;99.90;;;;;;5086934;28;20501;-69
2021/12/09 07:56:53;;;;;;;5.10;2.70;;;2.20;99.90;;;;;;5083109;28;21101;-71
2021/12/09 07:59:22;;;;;;;5.07;3.93;;;2.20;99.90;;;;;;5086189;28;20504;-71
2021/12/09 08:01:49;;;;;;;5.03;3.73;;;2.20;99.90;;;;;;5081631;28;20428;-73
2021/12/09 08:04:17;;;;;;;8.43;4.07;;;2.20;99.90;;;;;;5088076;28;20507;-74
2021/12/09 08:06:44;;;;;;;4.20;3.80;;;2.30;99.90;;;;;;5084410;28;20464;-71
2021/12/09 08:09:11;;;;;;;5.10;3.80;;;2.30;99.90;;;;;;5087189;28;20432;-71
2021/12/09 08:11:40;;;;;;;10.43;3.30;;;2.30;99.90;;;;;;5086819;28;21358;-73
2021/12/09 08:14:10;;;;;;;8.23;3.47;;;2.30;99.90;;;;;;5079131;28;20433;-69
2021/12/09 08:16:39;;;;;;;8.33;4.00;;;2.40;99.90;;;;;;5084217;28;20810;-68
2021/12/09 08:19:08;;;;;;;6.27;2.70;;;2.30;99.90;;;;;;5085175;28;20538;-70
2021/12/09 08:21:37;;;;;;;5.07;3.20;;;2.30;99.90;;;;;;5081968;28;20448;-72
2021/12/09 08:24:06;;;;;;;4.60;4.20;;;2.40;99.90;;;;;;5090650;28;20502;-70
2021/12/09 08:26:34;;;;;;;6.63;4.17;;;2.60;99.90;;;;;;5087221;28;20541;-71
2021/12/09 08:29:01;;;;;;;3.57;2.73;;;2.70;99.90;;;;;;5071353;28;20441;-73
2021/12/09 08:31:32;;;;;;;4.43;3.40;;;2.80;99.90;;;;;;5088462;28;20573;-71
2021/12/09 08:34:01;;;;;;;10.33;3.07;;;3.00;99.90;;;;;;5086688;28;20416;-71
2021/12/09 08:36:28;;;;;;;6.23;2.30;;;3.10;99.90;;;;;;5084911;28;20523;-72
2021/12/09 08:38:55;;;;;;;7.47;2.87;;;3.40;99.90;;;;;;5083147;28;20792;-72
2021/12/09 08:41:23;;;;;;;11.10;2.83;;;3.80;99.90;;;;;;5083591;28;20468;-71
2021/12/09 08:43:51;;;;;;;9.73;3.63;;;4.10;99.90;;;;;;5086979;28;20448;-71
2021/12/09 08:46:18;;;;;;;3.13;2.83;;;4.60;99.90;;;;;;5084398;28;20440;-74
2021/12/09 08:48:46;;;;;;;4.63;2.63;;;4.90;99.90;;;;;;5085679;28;20826;-71
2021/12/09 08:51:15;;;;;;;2.83;2.53;;;5.00;99.90;;;;;;5084526;28;20859;-72
2021/12/09 08:53:42;;;;;;;1.63;1.10;;;4.90;99.90;;;;;;5087686;28;20433;-68
2021/12/09 08:56:09;;;;;;;4.50;2.97;;;4.90;99.90;;;;;;5084295;28;20507;-71
2021/12/09 08:58:36;;;;;;;4.20;2.77;;;5.10;99.90;;;;;;5088959;28;20506;-72
2021/12/09 09:01:04;;;;;;;8.13;2.47;;;5.40;99.90;;;;;;5084234;28;20847;-72
2021/12/09 09:03:31;;;;;;;1.97;1.63;;;5.60;99.90;;;;;;5092948;28;20436;-73
2021/12/09 09:05:59;;;;;;;2.30;2.10;;;5.70;99.90;;;;;;5071763;28;20485;-71
2021/12/09 09:08:28;;;;;;;6.13;1.97;;;6.10;99.90;;;;;;5083808;28;20437;-70
2021/12/09 09:10:55;;;;;;;10.50;3.10;;;6.60;99.90;;;;;;5080735;28;20859;-72
2021/12/09 09:13:23;;;;;;;12.00;2.90;;;6.80;99.90;;;;;;5084423;28;20557;-72
2021/12/09 09:15:50;;;;;;;4.87;2.80;;;6.80;99.90;;;;;;5084344;28;20467;-73
2021/12/09 09:18:18;;;;;;;2.67;2.13;;;6.60;99.90;;;;;;5087720;28;20467;-71
2021/12/09 09:20:45;;;;;;;4.10;2.23;;;6.50;99.90;;;;;;5087075;28;20807;-71
2021/12/09 09:23:15;;;;;;;2.83;1.83;;;6.30;99.90;;;;;;5085942;28;20997;-71
2021/12/09 09:25:44;;;;;;;2.83;2.50;;;6.10;99.90;;;;;;5085727;28;20485;-72
2021/12/09 09:28:11;;;;;;;6.53;2.40;;;5.90;99.90;;;;;;5088793;28;20432;-69
2021/12/09 09:30:40;;;;;;;7.47;1.90;;;6.00;99.90;;;;;;5086211;28;20449;-71
2021/12/09 09:33:09;;;;;;;3.80;2.63;;;6.10;99.90;;;;;;5091270;28;20899;-69
2021/12/09 09:35:37;;;;;;;2.00;1.70;;;6.10;99.90;;;;;;5080107;28;20845;-71
2021/12/09 09:38:05;;;;;;;3.97;2.70;;;6.10;99.90;;;;;;5083163;28;20491;-71
2021/12/09 09:40:40;;;;;;;1.70;1.60;;;6.20;99.90;;;;;;5087460;28;20464;-70
2021/12/09 09:43:27;;;;;;;7.53;2.23;;;6.00;99.90;;;;;;5085747;28;20445;-69
2021/12/09 09:45:55;;;;;;;3.10;2.33;;;6.20;99.90;;;;;;5066908;28;20466;-71
2021/12/09 09:48:22;;;;;;;2.40;2.00;;;6.90;99.90;;;;;;5087289;28;20536;-71
2021/12/09 09:50:50;;;;;;;2.43;2.23;;;7.30;99.90;;;;;;5088271;28;20523;-71
2021/12/09 09:53:18;;;;;;;2.00;1.80;;;7.40;99.90;;;;;;5083933;28;20436;-70
2021/12/09 09:55:47;;;;;;;5.60;2.30;;;7.30;99.90;;;;;;5082301;28;20556;-73
2021/12/09 09:58:16;;;;;;;3.03;2.20;;;6.90;99.90;;;;;;5088758;28;20854;-71
2021/12/09 10:00:43;;;;;;;5.07;2.90;;;6.60;99.90;;;;;;5086274;28;20563;-70
2021/12/09 10:03:16;;;;;;;5.50;3.10;;;6.70;99.90;;;;;;5087108;28;20994;-70
2021/12/09 10:05:45;;;;;;;3.10;1.90;;;6.50;99.90;;;;;;5079998;28;20828;-71
2021/12/09 10:08:13;;;;;;;4.70;1.97;;;6.20;99.90;;;;;;5076519;28;20471;-69
2021/12/09 10:10:41;;;;;;;1.73;1.20;;;6.20;99.90;;;;;;5083807;28;20561;-70
2021/12/09 10:13:10;;;;;;;4.00;2.00;;;6.00;99.90;;;;;;5081092;28;21080;-70
2021/12/09 10:15:45;;;;;;;1.90;1.63;;;5.90;99.90;;;;;;5086966;28;20432;-71
2021/12/09 10:18:14;;;;;;;1.77;1.63;;;6.10;99.90;;;;;;5088594;28;20449;-70
2021/12/09 10:20:47;;;;;;;2.87;2.00;;;6.10;99.90;;;;;;5083801;28;20987;-71
2021/12/09 10:23:25;;;;;;;3.37;1.83;;;6.20;99.90;;;;;;5071342;28;22198;-73
2021/12/09 10:26:11;;;;;;;13.73;2.57;;;6.30;99.90;;;;;;5080958;28;20454;-69
2021/12/09 10:28:40;;;;;;;8.13;1.77;;;6.50;99.90;;;;;;5082362;28;20944;-71
2021/12/09 10:31:14;;;;;;;7.13;2.63;;;6.40;99.90;;;;;;5082336;28;20452;-68
2021/12/09 10:34:15;;;;;;;3.07;2.77;;;6.20;99.90;;;;;;5085896;28;20431;-70
2021/12/09 10:36:46;;;;;;;5.30;2.17;;;6.20;99.90;;;;;;5042308;28;20530;-71
2021/12/09 10:39:19;;;;;;;3.03;2.20;;;6.30;99.90;;;;;;5087325;28;20885;-73
2021/12/09 10:41:47;;;;;;;3.90;2.10;;;6.40;99.90;;;;;;5090632;28;20218;-71
2021/12/09 10:44:14;;;;;;;7.93;2.47;;;6.40;99.90;;;;;;5084809;28;20539;-70
2021/12/09 10:46:54;;;;;;;2.60;1.83;;;6.50;99.90;;;;;;5089259;28;20457;-71
2021/12/09 10:49:21;;;;;;;4.07;2.00;;;6.70;99.90;;;;;;5088981;28;20480;-71
2021/12/09 10:52:00;;;;;;;7.50;2.10;;;6.70;99.90;;;;;;5088608;28;20447;-71
2021/12/09 10:54:34;;;;;;;1.83;1.57;;;6.70;99.90;;;;;;5083697;28;20436;-71
2021/12/09 10:57:23;;;;;;;5.70;2.53;;;6.80;99.90;;;;;;5071719;28;20432;-70
2021/12/09 10:59:51;;;;;;;2.17;1.53;;;6.70;99.90;;;;;;5083988;28;20448;-70
2021/12/09 11:02:21;;;;;;;3.77;1.70;;;6.60;99.90;;;;;;5092891;28;20462;-69
2021/12/09 11:05:00;;;;;;;6.30;1.87;;;6.40;99.90;;;;;;5086678;28;21011;-69
2021/12/09 11:07:30;;;;;;;1.97;1.77;;;6.30;99.90;;;;;;5089458;28;20532;-70
2021/12/09 11:10:18;;;;;;;3.93;1.73;;;6.20;99.90;;;;;;5083245;28;20473;-70
2021/12/09 11:12:57;;;;;;;4.60;1.63;;;6.10;99.90;;;;;;5088975;28;20473;-70
2021/12/09 11:15:46;;;;;;;2.53;1.43;;;6.20;99.90;;;;;;5085941;28;20446;-69
2021/12/09 11:18:37;;;;;;;2.93;1.60;;;6.10;99.90;;;;;;5090662;28;20980;-70
2021/12/09 11:21:08;;;;;;;2.40;1.97;;;6.20;99.90;;;;;;5085522;28;20474;-71
2021/12/09 11:23:38;;;;;;;4.80;2.17;;;6.50;99.90;;;;;;5087526;28;20448;-70
2021/12/09 11:26:28;;;;;;;2.30;2.10;;;6.70;99.90;;;;;;5081211;28;20600;-70
2021/12/09 11:28:57;;;;;;;3.27;1.50;;;6.60;99.90;;;;;;5096980;28;20445;-69
2021/12/09 11:31:27;;;;;;;1.10;0.90;;;6.60;99.90;;;;;;5090353;28;20472;-71
2021/12/09 11:34:03;;;;;;;2.33;2.13;;;6.50;99.90;;;;;;5096509;28;20818;-68
2021/12/09 11:36:45;;;;;;;2.60;2.13;;;6.50;99.90;;;;;;5066555;28;20468;-69
2021/12/09 11:39:18;;;;;;;2.90;1.20;;;6.70;99.90;;;;;;5087250;28;20461;-70
2021/12/09 11:41:46;;;;;;;4.50;2.07;;;6.70;99.90;;;;;;5082003;28;20451;-70
2021/12/09 11:44:13;;;;;;;4.67;1.60;;;6.70;99.90;;;;;;5084610;28;20459;-69
2021/12/09 11:46:42;;;;;;;17.43;4.00;;;6.80;99.90;;;;;;5089105;28;20461;-69
2021/12/09 11:49:11;;;;;;;3.20;2.90;;;7.00;99.90;;;;;;5095888;28;20545;-70
2021/12/09 11:51:40;;;;;;;1.80;1.40;;;6.70;99.90;;;;;;5087176;28;20637;-71
2021/12/09 11:54:10;;;;;;;1.33;1.23;;;6.60;99.90;;;;;;5083800;28;20461;-70
2021/12/09 11:56:55;;;;;;;3.43;2.07;;;6.60;99.90;;;;;;5081948;28;20436;-72
2021/12/09 12:08:02;;;;;;;2.03;1.83;;;6.50;99.90;;;;;;5087151;28;20714;-71
2021/12/09 12:13:42;;;;;;;1.63;1.53;;;6.50;99.90;;;;;;5092312;28;20537;-70
2021/12/09 12:16:30;;;;;;;7.33;2.70;;;6.50;99.90;;;;;;5068494;28;20436;-69
2021/12/09 12:19:02;;;;;;;1.20;1.00;;;6.50;99.90;;;;;;5085663;28;20459;-69
2021/12/09 12:21:49;;;;;;;3.03;2.33;;;6.60;99.90;;;;;;5083564;28;20498;-69
2021/12/09 12:27:32;;;;;;;3.13;1.30;;;6.50;99.90;;;;;;5071526;28;20479;-68
2021/12/09 12:30:21;;;;;;;2.00;1.50;;;6.60;99.90;;;;;;5067843;28;20899;-69
2021/12/09 12:38:47;;;;;;;2.10;1.63;;;6.60;99.90;;;;;;5078844;28;20450;-70
2021/12/09 12:41:16;;;;;;;7.83;1.70;;;6.50;99.90;;;;;;5085138;28;20475;-71
2021/12/09 12:43:52;;;;;;;3.20;2.53;;;6.60;99.90;;;;;;5090055;28;20785;-71
2021/12/09 12:49:30;;;;;;;2.43;1.57;;;7.00;99.90;;;;;;5085639;28;20538;-69
2021/12/09 12:52:07;;;;;;;3.70;2.37;;;6.80;99.90;;;;;;5089639;28;20465;-70
2021/12/09 12:54:47;;;;;;;3.57;2.03;;;6.70;99.90;;;;;;5076931;28;21177;-70
2021/12/09 12:57:29;;;;;;;10.90;7.27;;;6.80;99.90;;;;;;5090122;28;20491;-71
2021/12/09 13:00:13;;;;;;;6.50;4.03;;;6.70;99.90;;;;;;5085770;28;20546;-70
2021/12/09 13:06:05;;;;;;;8.43;1.93;;;6.50;99.90;;;;;;5074040;27;20915;-69
2021/12/09 13:08:54;;;;;;;3.40;2.20;;;6.60;99.90;;;;;;5065598;28;20466;-70
2021/12/09 13:11:43;;;;;;;2.40;1.40;;;6.50;99.90;;;;;;5061308;28;20452;-69
2021/12/09 13:14:19;;;;;;;3.13;2.83;;;6.60;99.90;;;;;;5061599;28;20870;-70
2021/12/09 13:17:00;;;;;;;4.77;2.60;;;6.50;99.90;;;;;;5063566;28;20738;-71
2021/12/09 13:19:36;;;;;;;2.40;1.27;;;6.40;99.90;;;;;;5060865;28;20467;-71
2021/12/09 13:22:19;;;;;;;7.60;6.23;;;6.40;99.90;;;;;;5089345;22;20468;-65
2021/12/09 13:24:51;;;;;;;11.70;8.53;;;6.30;99.90;;;;;;5012845;28;20495;-74
2021/12/09 13:36:38;;;;;;;1.43;1.30;;;6.30;99.90;;;;;;5008901;28;21095;-70
2021/12/09 13:47:38;;;;;;;5.93;2.87;;;6.50;99.90;;;;;;5003809;28;21025;-71
2021/12/09 13:55:50;;;;;;;4.83;2.07;;;6.60;99.90;;;;;;5002217;28;20539;-71
2021/12/09 13:58:21;;;;;;;3.83;3.13;;;6.70;99.90;;;;;;5004978;28;20420;-69
2021/12/09 14:00:51;;;;;;;3.20;2.10;;;6.50;99.90;;;;;;5003035;28;20425;-71
2021/12/09 14:03:20;;;;;;;4.83;2.33;;;6.60;99.90;;;;;;4997374;28;20485;-72
2021/12/09 14:05:51;;;;;;;7.50;3.07;;;6.70;99.90;;;;;;5000557;28;20461;-68